sensor_id;sensor_type;location;lat;lon;timestamp;temperature;humidity
48019;DHT22;33786;48.690;9.562;2023-04-03T00:00:30;3.50;99.90
48019;DHT22;33786;48.690;9.562;2023-04-03T00:03:00;3.50;99.90
48019;DHT22;33786;48.690;9.562;2023-04-03T00:05:26;3.50;99.90
48019;DHT22;33786;48.690;9.562;2023-04-03T00:07:53;3.50;99.90
48019;DHT22;33786;48.690;9.562;2023-04-03T00:10:20;3.50;99.90
48019;DHT22;33786;48.690;9.562;2023-04-03T00:12:46;3.40;99.90
48019;DHT22;33786;48.690;9.562;2023-04-03T00:15:13;3.50;99.90
48019;DHT22;33786;48.690;9.562;2023-04-03T00:17:41;3.50;99.90
48019;DHT22;33786;48.690;9.562;2023-04-03T00:20:08;3.50;99.90
48019;DHT22;33786;48.690;9.562;2023-04-03T00:22:34;3.50;99.90
48019;DHT22;33786;48.690;9.562;2023-04-03T00:25:01;3.50;99.90
48019;DHT22;33786;48.690;9.562;2023-04-03T00:27:28;3.50;99.90
48019;DHT22;33786;48.690;9.562;2023-04-03T00:29:54;3.50;99.90
48019;DHT22;33786;48.690;9.562;2023-04-03T00:32:21;3.40;99.90
48019;DHT22;33786;48.690;9.562;2023-04-03T00:34:48;3.50;99.90
48019;DHT22;33786;48.690;9.562;2023-04-03T00:37:17;3.40;99.90
48019;DHT22;33786;48.690;9.562;2023-04-03T00:39:44;3.40;99.90
48019;DHT22;33786;48.690;9.562;2023-04-03T00:42:10;3.40;99.90
48019;DHT22;33786;48.690;9.562;2023-04-03T00:47:04;3.30;99.90
48019;DHT22;33786;48.690;9.562;2023-04-03T00:49:32;3.30;99.90
48019;DHT22;33786;48.690;9.562;2023-04-03T00:51:58;3.20;99.90
48019;DHT22;33786;48.690;9.562;2023-04-03T00:54:26;3.30;99.90
48019;DHT22;33786;48.690;9.562;2023-04-03T00:56:53;3.30;99.90
48019;DHT22;33786;48.690;9.562;2023-04-03T00:59:22;3.30;99.90
48019;DHT22;33786;48.690;9.562;2023-04-03T01:01:55;3.20;99.90
48019;DHT22;33786;48.690;9.562;2023-04-03T01:04:32;3.20;99.90
48019;DHT22;33786;48.690;9.562;2023-04-03T01:07:01;3.10;99.90
48019;DHT22;33786;48.690;9.562;2023-04-03T01:09:28;3.20;99.90
48019;DHT22;33786;48.690;9.562;2023-04-03T01:12:12;3.20;99.90
48019;DHT22;33786;48.690;9.562;2023-04-03T01:14:41;3.30;99.90
48019;DHT22;33786;48.690;9.562;2023-04-03T01:25:38;3.10;99.90
48019;DHT22;33786;48.690;9.562;2023-04-03T01:28:06;3.10;99.90
48019;DHT22;33786;48.690;9.562;2023-04-03T01:30:39;3.10;99.90
48019;DHT22;33786;48.690;9.562;2023-04-03T01:33:07;3.10;99.90
48019;DHT22;33786;48.690;9.562;2023-04-03T01:35:34;3.20;99.90
48019;DHT22;33786;48.690;9.562;2023-04-03T01:38:01;3.20;99.90
48019;DHT22;33786;48.690;9.562;2023-04-03T01:40:27;3.10;99.90
48019;DHT22;33786;48.690;9.562;2023-04-03T01:42:54;3.10;99.90
48019;DHT22;33786;48.690;9.562;2023-04-03T01:45:21;3.20;99.90
48019;DHT22;33786;48.690;9.562;2023-04-03T01:47:48;3.20;99.90
48019;DHT22;33786;48.690;9.562;2023-04-03T01:50:14;3.20;99.90
48019;DHT22;33786;48.690;9.562;2023-04-03T01:52:41;3.20;99.90
48019;DHT22;33786;48.690;9.562;2023-04-03T01:55:08;3.20;99.90
48019;DHT22;33786;48.690;9.562;2023-04-03T01:57:35;3.10;99.90
48019;DHT22;33786;48.690;9.562;2023-04-03T02:00:01;3.10;99.90
48019;DHT22;33786;48.690;9.562;2023-04-03T02:02:28;3.20;99.90
48019;DHT22;33786;48.690;9.562;2023-04-03T02:04:55;3.10;99.90
48019;DHT22;33786;48.690;9.562;2023-04-03T02:07:22;3.20;99.90
48019;DHT22;33786;48.690;9.562;2023-04-03T02:09:48;3.10;99.90
48019;DHT22;33786;48.690;9.562;2023-04-03T02:12:16;3.10;99.90
48019;DHT22;33786;48.690;9.562;2023-04-03T02:14:42;3.00;99.90
48019;DHT22;33786;48.690;9.562;2023-04-03T02:17:09;3.10;99.90
48019;DHT22;33786;48.690;9.562;2023-04-03T02:19:36;3.10;99.90
48019;DHT22;33786;48.690;9.562;2023-04-03T02:22:03;3.10;99.90
48019;DHT22;33786;48.690;9.562;2023-04-03T02:24:30;3.10;99.90
48019;DHT22;33786;48.690;9.562;2023-04-03T02:26:57;3.10;99.90
48019;DHT22;33786;48.690;9.562;2023-04-03T02:29:24;3.10;99.90
48019;DHT22;33786;48.690;9.562;2023-04-03T02:31:51;3.10;99.90
48019;DHT22;33786;48.690;9.562;2023-04-03T02:34:17;3.10;99.90
48019;DHT22;33786;48.690;9.562;2023-04-03T02:36:44;3.00;99.90
48019;DHT22;33786;48.690;9.562;2023-04-03T02:39:11;3.00;99.90
48019;DHT22;33786;48.690;9.562;2023-04-03T02:41:38;3.10;99.90
48019;DHT22;33786;48.690;9.562;2023-04-03T02:44:05;3.10;99.90
48019;DHT22;33786;48.690;9.562;2023-04-03T02:46:33;3.10;99.90
48019;DHT22;33786;48.690;9.562;2023-04-03T02:48:59;3.10;99.90
48019;DHT22;33786;48.690;9.562;2023-04-03T02:51:26;3.10;99.90
48019;DHT22;33786;48.690;9.562;2023-04-03T02:53:53;3.10;99.90
48019;DHT22;33786;48.690;9.562;2023-04-03T02:56:20;3.10;99.90
48019;DHT22;33786;48.690;9.562;2023-04-03T02:58:47;3.20;99.90
48019;DHT22;33786;48.690;9.562;2023-04-03T03:01:14;3.20;99.90
48019;DHT22;33786;48.690;9.562;2023-04-03T03:03:41;3.20;99.90
48019;DHT22;33786;48.690;9.562;2023-04-03T03:06:09;3.10;99.90
48019;DHT22;33786;48.690;9.562;2023-04-03T03:08:36;3.20;99.90
48019;DHT22;33786;48.690;9.562;2023-04-03T03:11:03;3.20;99.90
48019;DHT22;33786;48.690;9.562;2023-04-03T03:13:30;3.20;99.90
48019;DHT22;33786;48.690;9.562;2023-04-03T03:15:57;3.30;99.90
48019;DHT22;33786;48.690;9.562;2023-04-03T03:18:24;3.20;99.90
48019;DHT22;33786;48.690;9.562;2023-04-03T03:20:51;3.20;99.90
48019;DHT22;33786;48.690;9.562;2023-04-03T03:23:18;3.20;99.90
48019;DHT22;33786;48.690;9.562;2023-04-03T03:25:45;3.30;99.90
48019;DHT22;33786;48.690;9.562;2023-04-03T03:28:12;3.30;99.90
48019;DHT22;33786;48.690;9.562;2023-04-03T03:30:39;3.20;99.90
48019;DHT22;33786;48.690;9.562;2023-04-03T03:33:05;3.10;99.90
48019;DHT22;33786;48.690;9.562;2023-04-03T03:35:32;3.10;99.90
48019;DHT22;33786;48.690;9.562;2023-04-03T03:37:59;3.10;99.90
48019;DHT22;33786;48.690;9.562;2023-04-03T03:40:25;3.20;99.90
48019;DHT22;33786;48.690;9.562;2023-04-03T03:42:52;3.00;99.90
48019;DHT22;33786;48.690;9.562;2023-04-03T03:45:19;3.10;99.90
48019;DHT22;33786;48.690;9.562;2023-04-03T03:47:49;3.10;99.90
48019;DHT22;33786;48.690;9.562;2023-04-03T03:50:15;3.10;99.90
48019;DHT22;33786;48.690;9.562;2023-04-03T03:52:42;3.10;99.90
48019;DHT22;33786;48.690;9.562;2023-04-03T03:55:09;3.10;99.90
48019;DHT22;33786;48.690;9.562;2023-04-03T03:57:35;3.10;99.90
48019;DHT22;33786;48.690;9.562;2023-04-03T04:00:02;3.00;99.90
48019;DHT22;33786;48.690;9.562;2023-04-03T04:02:30;3.00;99.90
48019;DHT22;33786;48.690;9.562;2023-04-03T04:04:57;3.10;99.90
48019;DHT22;33786;48.690;9.562;2023-04-03T04:07:23;3.10;99.90
48019;DHT22;33786;48.690;9.562;2023-04-03T04:09:50;3.20;99.90
48019;DHT22;33786;48.690;9.562;2023-04-03T04:12:17;3.20;99.90
48019;DHT22;33786;48.690;9.562;2023-04-03T04:14:44;3.20;99.90
48019;DHT22;33786;48.690;9.562;2023-04-03T04:17:13;3.20;99.90
48019;DHT22;33786;48.690;9.562;2023-04-03T04:19:40;3.10;99.90
48019;DHT22;33786;48.690;9.562;2023-04-03T04:22:07;3.20;99.90
48019;DHT22;33786;48.690;9.562;2023-04-03T04:24:33;3.20;99.90
48019;DHT22;33786;48.690;9.562;2023-04-03T04:27:05;3.10;99.90
48019;DHT22;33786;48.690;9.562;2023-04-03T04:29:31;3.10;99.90
48019;DHT22;33786;48.690;9.562;2023-04-03T04:32:02;3.20;99.90
48019;DHT22;33786;48.690;9.562;2023-04-03T04:34:29;3.20;99.90
48019;DHT22;33786;48.690;9.562;2023-04-03T04:36:56;3.20;99.90
48019;DHT22;33786;48.690;9.562;2023-04-03T04:39:23;3.30;99.90
48019;DHT22;33786;48.690;9.562;2023-04-03T04:41:50;3.30;99.90
48019;DHT22;33786;48.690;9.562;2023-04-03T04:44:16;3.20;99.90
48019;DHT22;33786;48.690;9.562;2023-04-03T04:46:43;3.20;99.90
48019;DHT22;33786;48.690;9.562;2023-04-03T04:49:12;3.20;99.90
48019;DHT22;33786;48.690;9.562;2023-04-03T04:51:38;3.20;99.90
48019;DHT22;33786;48.690;9.562;2023-04-03T04:54:17;3.20;99.90
48019;DHT22;33786;48.690;9.562;2023-04-03T04:56:44;3.40;99.90
48019;DHT22;33786;48.690;9.562;2023-04-03T04:59:10;3.20;99.90
48019;DHT22;33786;48.690;9.562;2023-04-03T05:01:37;3.20;99.90
48019;DHT22;33786;48.690;9.562;2023-04-03T05:04:04;3.20;99.90
48019;DHT22;33786;48.690;9.562;2023-04-03T05:06:31;3.20;99.90
48019;DHT22;33786;48.690;9.562;2023-04-03T05:08:58;3.20;99.90
48019;DHT22;33786;48.690;9.562;2023-04-03T05:11:25;3.20;99.90
48019;DHT22;33786;48.690;9.562;2023-04-03T05:13:52;3.20;99.90
48019;DHT22;33786;48.690;9.562;2023-04-03T05:16:18;3.10;99.90
48019;DHT22;33786;48.690;9.562;2023-04-03T05:18:45;3.10;99.90
48019;DHT22;33786;48.690;9.562;2023-04-03T05:21:12;3.10;99.90
48019;DHT22;33786;48.690;9.562;2023-04-03T05:23:38;3.00;99.90
48019;DHT22;33786;48.690;9.562;2023-04-03T05:26:05;3.00;99.90
48019;DHT22;33786;48.690;9.562;2023-04-03T05:28:32;3.00;99.90
48019;DHT22;33786;48.690;9.562;2023-04-03T05:30:59;3.10;99.90
48019;DHT22;33786;48.690;9.562;2023-04-03T05:33:26;3.10;99.90
48019;DHT22;33786;48.690;9.562;2023-04-03T05:35:53;3.00;99.90
48019;DHT22;33786;48.690;9.562;2023-04-03T05:38:20;3.00;99.90
48019;DHT22;33786;48.690;9.562;2023-04-03T05:40:47;2.90;99.90
48019;DHT22;33786;48.690;9.562;2023-04-03T05:43:14;2.80;99.90
48019;DHT22;33786;48.690;9.562;2023-04-03T05:45:42;2.80;99.90
48019;DHT22;33786;48.690;9.562;2023-04-03T05:48:12;2.90;99.90
48019;DHT22;33786;48.690;9.562;2023-04-03T05:50:39;2.80;99.90
48019;DHT22;33786;48.690;9.562;2023-04-03T05:53:12;2.80;99.90
48019;DHT22;33786;48.690;9.562;2023-04-03T05:55:41;2.80;99.90
48019;DHT22;33786;48.690;9.562;2023-04-03T05:58:07;2.80;99.90
48019;DHT22;33786;48.690;9.562;2023-04-03T06:00:36;2.90;99.90
48019;DHT22;33786;48.690;9.562;2023-04-03T06:03:04;3.10;99.90
48019;DHT22;33786;48.690;9.562;2023-04-03T06:05:31;3.20;99.90
48019;DHT22;33786;48.690;9.562;2023-04-03T06:07:58;3.20;99.90
48019;DHT22;33786;48.690;9.562;2023-04-03T06:10:25;3.30;99.90
48019;DHT22;33786;48.690;9.562;2023-04-03T06:12:52;3.20;99.90
48019;DHT22;33786;48.690;9.562;2023-04-03T06:15:19;3.10;99.90
48019;DHT22;33786;48.690;9.562;2023-04-03T06:17:46;3.30;99.90
48019;DHT22;33786;48.690;9.562;2023-04-03T06:20:13;3.20;99.90
48019;DHT22;33786;48.690;9.562;2023-04-03T06:22:40;3.20;99.90
48019;DHT22;33786;48.690;9.562;2023-04-03T06:25:08;3.20;99.90
48019;DHT22;33786;48.690;9.562;2023-04-03T06:27:36;3.20;99.90
48019;DHT22;33786;48.690;9.562;2023-04-03T06:30:03;3.30;99.90
48019;DHT22;33786;48.690;9.562;2023-04-03T06:32:29;3.30;99.90
48019;DHT22;33786;48.690;9.562;2023-04-03T06:34:56;3.50;99.90
48019;DHT22;33786;48.690;9.562;2023-04-03T06:37:24;3.40;99.90
48019;DHT22;33786;48.690;9.562;2023-04-03T06:39:55;3.30;99.90
48019;DHT22;33786;48.690;9.562;2023-04-03T06:42:22;3.40;99.90
48019;DHT22;33786;48.690;9.562;2023-04-03T06:44:49;3.50;99.90
48019;DHT22;33786;48.690;9.562;2023-04-03T06:47:18;3.40;99.90
48019;DHT22;33786;48.690;9.562;2023-04-03T06:49:48;3.30;99.90
48019;DHT22;33786;48.690;9.562;2023-04-03T06:52:15;3.30;99.90
48019;DHT22;33786;48.690;9.562;2023-04-03T06:54:42;3.40;99.90
48019;DHT22;33786;48.690;9.562;2023-04-03T06:57:08;3.50;99.90
48019;DHT22;33786;48.690;9.562;2023-04-03T06:59:35;3.50;99.90
48019;DHT22;33786;48.690;9.562;2023-04-03T07:02:03;3.80;99.90
48019;DHT22;33786;48.690;9.562;2023-04-03T07:04:30;3.90;99.90
48019;DHT22;33786;48.690;9.562;2023-04-03T07:06:57;3.80;99.90
48019;DHT22;33786;48.690;9.562;2023-04-03T07:09:24;4.10;99.90
48019;DHT22;33786;48.690;9.562;2023-04-03T07:11:54;4.20;99.90
48019;DHT22;33786;48.690;9.562;2023-04-03T07:14:20;4.30;99.90
48019;DHT22;33786;48.690;9.562;2023-04-03T07:16:48;4.40;99.90
48019;DHT22;33786;48.690;9.562;2023-04-03T07:19:14;4.50;99.90
48019;DHT22;33786;48.690;9.562;2023-04-03T07:21:41;4.80;99.90
48019;DHT22;33786;48.690;9.562;2023-04-03T07:24:12;4.90;99.90
48019;DHT22;33786;48.690;9.562;2023-04-03T07:26:42;5.40;99.20
48019;DHT22;33786;48.690;9.562;2023-04-03T07:29:09;5.50;99.10
48019;DHT22;33786;48.690;9.562;2023-04-03T07:31:36;6.00;98.50
48019;DHT22;33786;48.690;9.562;2023-04-03T07:34:03;6.20;97.60
48019;DHT22;33786;48.690;9.562;2023-04-03T07:36:29;7.90;95.90
48019;DHT22;33786;48.690;9.562;2023-04-03T07:38:59;8.30;93.80
48019;DHT22;33786;48.690;9.562;2023-04-03T07:41:26;8.70;93.50
48019;DHT22;33786;48.690;9.562;2023-04-03T07:43:53;10.10;90.80
48019;DHT22;33786;48.690;9.562;2023-04-03T07:46:21;9.50;90.40
48019;DHT22;33786;48.690;9.562;2023-04-03T07:48:48;8.30;92.40
48019;DHT22;33786;48.690;9.562;2023-04-03T07:51:14;7.70;92.80
48019;DHT22;33786;48.690;9.562;2023-04-03T07:53:41;6.80;94.20
48019;DHT22;33786;48.690;9.562;2023-04-03T07:56:08;6.40;94.90
48019;DHT22;33786;48.690;9.562;2023-04-03T07:58:35;6.10;95.80
48019;DHT22;33786;48.690;9.562;2023-04-03T08:01:03;6.20;96.40
48019;DHT22;33786;48.690;9.562;2023-04-03T08:03:30;6.30;95.70
48019;DHT22;33786;48.690;9.562;2023-04-03T08:06:01;6.20;95.80
48019;DHT22;33786;48.690;9.562;2023-04-03T08:08:28;6.10;96.50
48019;DHT22;33786;48.690;9.562;2023-04-03T08:10:57;6.30;96.20
48019;DHT22;33786;48.690;9.562;2023-04-03T08:13:24;6.50;95.70
48019;DHT22;33786;48.690;9.562;2023-04-03T08:15:51;6.80;95.20
48019;DHT22;33786;48.690;9.562;2023-04-03T08:18:18;7.60;93.80
48019;DHT22;33786;48.690;9.562;2023-04-03T08:20:47;7.40;93.60
48019;DHT22;33786;48.690;9.562;2023-04-03T08:23:14;7.30;94.20
48019;DHT22;33786;48.690;9.562;2023-04-03T08:25:44;7.60;93.50
48019;DHT22;33786;48.690;9.562;2023-04-03T08:28:12;7.50;93.50
48019;DHT22;33786;48.690;9.562;2023-04-03T08:30:39;7.60;93.10
48019;DHT22;33786;48.690;9.562;2023-04-03T08:33:06;7.40;93.20
48019;DHT22;33786;48.690;9.562;2023-04-03T08:35:37;7.10;94.50
48019;DHT22;33786;48.690;9.562;2023-04-03T08:38:05;7.60;94.10
48019;DHT22;33786;48.690;9.562;2023-04-03T08:40:32;7.50;94.50
48019;DHT22;33786;48.690;9.562;2023-04-03T08:43:20;8.60;93.00
48019;DHT22;33786;48.690;9.562;2023-04-03T08:45:55;8.30;91.70
48019;DHT22;33786;48.690;9.562;2023-04-03T08:48:27;7.20;93.30
48019;DHT22;33786;48.690;9.562;2023-04-03T08:50:59;7.30;92.90
48019;DHT22;33786;48.690;9.562;2023-04-03T08:53:30;8.20;92.90
48019;DHT22;33786;48.690;9.562;2023-04-03T08:55:59;8.80;91.50
48019;DHT22;33786;48.690;9.562;2023-04-03T08:58:45;9.30;91.00
48019;DHT22;33786;48.690;9.562;2023-04-03T09:01:19;9.80;88.50
48019;DHT22;33786;48.690;9.562;2023-04-03T09:03:46;11.00;86.70
48019;DHT22;33786;48.690;9.562;2023-04-03T09:11:44;10.10;85.60
48019;DHT22;33786;48.690;9.562;2023-04-03T09:16:58;8.30;90.70
48019;DHT22;33786;48.690;9.562;2023-04-03T09:24:29;8.20;90.80
48019;DHT22;33786;48.690;9.562;2023-04-03T09:26:58;7.50;91.60
48019;DHT22;33786;48.690;9.562;2023-04-03T09:29:29;7.30;92.50
48019;DHT22;33786;48.690;9.562;2023-04-03T09:31:56;6.90;92.00
48019;DHT22;33786;48.690;9.562;2023-04-03T09:34:28;6.70;92.00
48019;DHT22;33786;48.690;9.562;2023-04-03T09:36:57;6.70;93.10
48019;DHT22;33786;48.690;9.562;2023-04-03T09:39:25;6.90;93.00
48019;DHT22;33786;48.690;9.562;2023-04-03T09:42:00;6.90;91.60
48019;DHT22;33786;48.690;9.562;2023-04-03T09:44:29;6.90;92.00
48019;DHT22;33786;48.690;9.562;2023-04-03T09:46:56;6.70;91.90
48019;DHT22;33786;48.690;9.562;2023-04-03T09:49:24;6.50;92.60
48019;DHT22;33786;48.690;9.562;2023-04-03T09:51:51;6.50;92.10
48019;DHT22;33786;48.690;9.562;2023-04-03T09:56:51;6.50;92.40
48019;DHT22;33786;48.690;9.562;2023-04-03T09:59:19;6.40;92.00
48019;DHT22;33786;48.690;9.562;2023-04-03T10:02:03;6.40;91.10
48019;DHT22;33786;48.690;9.562;2023-04-03T10:04:38;6.30;91.00
48019;DHT22;33786;48.690;9.562;2023-04-03T10:07:49;6.20;91.70
48019;DHT22;33786;48.690;9.562;2023-04-03T10:09:57;6.30;92.00
48019;DHT22;33786;48.690;9.562;2023-04-03T10:12:24;6.80;92.10
48019;DHT22;33786;48.690;9.562;2023-04-03T10:14:58;7.00;91.30
48019;DHT22;33786;48.690;9.562;2023-04-03T10:20:00;6.50;91.70
48019;DHT22;33786;48.690;9.562;2023-04-03T10:27:36;6.00;92.20
48019;DHT22;33786;48.690;9.562;2023-04-03T10:30:28;5.80;92.80
48019;DHT22;33786;48.690;9.562;2023-04-03T10:33:01;5.90;93.00
48019;DHT22;33786;48.690;9.562;2023-04-03T10:38:01;6.00;92.70
48019;DHT22;33786;48.690;9.562;2023-04-03T10:43:09;6.20;92.20
48019;DHT22;33786;48.690;9.562;2023-04-03T10:45:56;6.40;91.60
48019;DHT22;33786;48.690;9.562;2023-04-03T10:51:01;6.30;91.00
48019;DHT22;33786;48.690;9.562;2023-04-03T10:58:33;6.20;90.80
48019;DHT22;33786;48.690;9.562;2023-04-03T11:01:03;6.10;90.60
48019;DHT22;33786;48.690;9.562;2023-04-03T11:03:40;5.90;90.40
48019;DHT22;33786;48.690;9.562;2023-04-03T11:06:08;6.00;90.60
48019;DHT22;33786;48.690;9.562;2023-04-03T11:11:08;6.10;90.60
48019;DHT22;33786;48.690;9.562;2023-04-03T11:13:48;6.00;91.10
48019;DHT22;33786;48.690;9.562;2023-04-03T11:16:18;6.00;90.90
48019;DHT22;33786;48.690;9.562;2023-04-03T11:18:52;6.10;90.60
48019;DHT22;33786;48.690;9.562;2023-04-03T11:21:24;6.00;91.00
48019;DHT22;33786;48.690;9.562;2023-04-03T11:23:53;5.90;90.80
48019;DHT22;33786;48.690;9.562;2023-04-03T11:26:22;6.00;91.00
48019;DHT22;33786;48.690;9.562;2023-04-03T11:28:52;6.00;90.30
48019;DHT22;33786;48.690;9.562;2023-04-03T11:31:26;5.90;90.60
48019;DHT22;33786;48.690;9.562;2023-04-03T11:36:41;6.50;90.00
48019;DHT22;33786;48.690;9.562;2023-04-03T11:41:42;6.70;88.60
48019;DHT22;33786;48.690;9.562;2023-04-03T11:44:26;6.50;87.20
48019;DHT22;33786;48.690;9.562;2023-04-03T11:46:57;6.60;87.30
48019;DHT22;33786;48.690;9.562;2023-04-03T11:52:10;6.90;87.50
48019;DHT22;33786;48.690;9.562;2023-04-03T11:57:38;6.80;85.70
48019;DHT22;33786;48.690;9.562;2023-04-03T12:02:54;6.50;84.30
48019;DHT22;33786;48.690;9.562;2023-04-03T12:05:28;6.50;85.60
48019;DHT22;33786;48.690;9.562;2023-04-03T12:13:41;6.60;87.30
48019;DHT22;33786;48.690;9.562;2023-04-03T12:18:55;6.70;88.00
48019;DHT22;33786;48.690;9.562;2023-04-03T12:21:23;6.90;85.00
48019;DHT22;33786;48.690;9.562;2023-04-03T12:26:27;7.20;84.90
48019;DHT22;33786;48.690;9.562;2023-04-03T12:29:21;7.30;84.90
48019;DHT22;33786;48.690;9.562;2023-04-03T12:37:08;7.00;83.20
48019;DHT22;33786;48.690;9.562;2023-04-03T12:44:58;6.80;84.60
48019;DHT22;33786;48.690;9.562;2023-04-03T12:47:30;6.90;84.90
48019;DHT22;33786;48.690;9.562;2023-04-03T12:49:59;6.70;84.40
48019;DHT22;33786;48.690;9.562;2023-04-03T12:52:41;6.90;85.30
48019;DHT22;33786;48.690;9.562;2023-04-03T12:55:15;6.90;84.30
48019;DHT22;33786;48.690;9.562;2023-04-03T12:57:43;7.00;84.90
48019;DHT22;33786;48.690;9.562;2023-04-03T13:00:20;7.10;85.00
48019;DHT22;33786;48.690;9.562;2023-04-03T13:02:48;7.10;84.50
48019;DHT22;33786;48.690;9.562;2023-04-03T13:05:17;7.10;84.10
48019;DHT22;33786;48.690;9.562;2023-04-03T13:07:44;7.20;85.50
48019;DHT22;33786;48.690;9.562;2023-04-03T13:10:16;7.30;85.10
48019;DHT22;33786;48.690;9.562;2023-04-03T13:12:45;7.60;84.30
48019;DHT22;33786;48.690;9.562;2023-04-03T13:15:15;7.30;84.60
48019;DHT22;33786;48.690;9.562;2023-04-03T13:17:43;7.40;84.60
48019;DHT22;33786;48.690;9.562;2023-04-03T13:20:15;7.20;83.40
48019;DHT22;33786;48.690;9.562;2023-04-03T13:25:30;7.40;83.20
48019;DHT22;33786;48.690;9.562;2023-04-03T13:27:58;7.40;81.70
48019;DHT22;33786;48.690;9.562;2023-04-03T13:30:39;7.30;81.20
48019;DHT22;33786;48.690;9.562;2023-04-03T13:33:19;7.50;81.70
48019;DHT22;33786;48.690;9.562;2023-04-03T13:35:47;7.70;80.60
48019;DHT22;33786;48.690;9.562;2023-04-03T13:40:50;7.30;80.20
48019;DHT22;33786;48.690;9.562;2023-04-03T13:43:24;7.30;80.80
48019;DHT22;33786;48.690;9.562;2023-04-03T13:48:41;7.40;81.60
48019;DHT22;33786;48.690;9.562;2023-04-03T13:53:48;7.50;80.30
48019;DHT22;33786;48.690;9.562;2023-04-03T13:56:24;7.40;81.50
48019;DHT22;33786;48.690;9.562;2023-04-03T13:58:57;7.60;80.80
48019;DHT22;33786;48.690;9.562;2023-04-03T14:01:24;7.50;80.00
48019;DHT22;33786;48.690;9.562;2023-04-03T14:06:17;7.60;80.20
48019;DHT22;33786;48.690;9.562;2023-04-03T14:08:44;7.90;79.80
48019;DHT22;33786;48.690;9.562;2023-04-03T14:11:13;8.10;80.90
48019;DHT22;33786;48.690;9.562;2023-04-03T14:13:40;8.10;79.00
48019;DHT22;33786;48.690;9.562;2023-04-03T14:16:07;7.50;80.30
48019;DHT22;33786;48.690;9.562;2023-04-03T14:18:42;7.30;81.90
48019;DHT22;33786;48.690;9.562;2023-04-03T14:21:11;7.10;82.60
48019;DHT22;33786;48.690;9.562;2023-04-03T14:23:38;7.00;81.40
48019;DHT22;33786;48.690;9.562;2023-04-03T14:26:09;6.70;80.60
48019;DHT22;33786;48.690;9.562;2023-04-03T14:28:37;6.60;81.60
48019;DHT22;33786;48.690;9.562;2023-04-03T14:31:03;6.60;82.10
48019;DHT22;33786;48.690;9.562;2023-04-03T14:33:31;6.70;81.70
48019;DHT22;33786;48.690;9.562;2023-04-03T14:36:02;6.90;83.50
48019;DHT22;33786;48.690;9.562;2023-04-03T14:38:34;7.10;84.10
48019;DHT22;33786;48.690;9.562;2023-04-03T14:41:01;7.30;82.20
48019;DHT22;33786;48.690;9.562;2023-04-03T14:43:41;7.10;81.40
48019;DHT22;33786;48.690;9.562;2023-04-03T14:46:28;7.00;79.20
48019;DHT22;33786;48.690;9.562;2023-04-03T14:49:14;7.00;78.80
48019;DHT22;33786;48.690;9.562;2023-04-03T14:51:42;7.10;80.10
48019;DHT22;33786;48.690;9.562;2023-04-03T14:54:16;7.20;79.30
48019;DHT22;33786;48.690;9.562;2023-04-03T14:56:43;7.30;78.80
48019;DHT22;33786;48.690;9.562;2023-04-03T14:59:12;7.30;79.10
48019;DHT22;33786;48.690;9.562;2023-04-03T15:01:39;7.30;79.40
48019;DHT22;33786;48.690;9.562;2023-04-03T15:04:13;7.40;78.60
48019;DHT22;33786;48.690;9.562;2023-04-03T15:06:40;7.20;78.00
48019;DHT22;33786;48.690;9.562;2023-04-03T15:09:20;7.00;79.50
48019;DHT22;33786;48.690;9.562;2023-04-03T15:11:48;6.80;79.20
48019;DHT22;33786;48.690;9.562;2023-04-03T15:14:15;6.80;79.60
48019;DHT22;33786;48.690;9.562;2023-04-03T15:17:03;6.70;79.70
48019;DHT22;33786;48.690;9.562;2023-04-03T15:19:35;6.80;79.60
48019;DHT22;33786;48.690;9.562;2023-04-03T15:22:02;6.90;79.50
48019;DHT22;33786;48.690;9.562;2023-04-03T15:24:29;6.90;79.60
48019;DHT22;33786;48.690;9.562;2023-04-03T15:26:56;7.00;79.70
48019;DHT22;33786;48.690;9.562;2023-04-03T15:29:22;7.10;76.50
48019;DHT22;33786;48.690;9.562;2023-04-03T15:31:50;7.00;76.90
48019;DHT22;33786;48.690;9.562;2023-04-03T15:34:20;6.90;77.50
48019;DHT22;33786;48.690;9.562;2023-04-03T15:36:49;7.00;77.30
48019;DHT22;33786;48.690;9.562;2023-04-03T15:39:16;7.10;76.70
48019;DHT22;33786;48.690;9.562;2023-04-03T15:41:43;7.00;76.70
48019;DHT22;33786;48.690;9.562;2023-04-03T15:44:10;7.00;77.20
48019;DHT22;33786;48.690;9.562;2023-04-03T15:46:38;6.90;76.70
48019;DHT22;33786;48.690;9.562;2023-04-03T15:49:05;7.00;77.10
48019;DHT22;33786;48.690;9.562;2023-04-03T15:51:32;7.00;77.10
48019;DHT22;33786;48.690;9.562;2023-04-03T15:54:01;6.90;77.90
48019;DHT22;33786;48.690;9.562;2023-04-03T15:56:28;6.80;78.80
48019;DHT22;33786;48.690;9.562;2023-04-03T15:58:55;6.70;79.70
48019;DHT22;33786;48.690;9.562;2023-04-03T16:01:22;6.60;79.60
48019;DHT22;33786;48.690;9.562;2023-04-03T16:03:48;6.50;80.30
48019;DHT22;33786;48.690;9.562;2023-04-03T16:06:16;6.60;79.70
48019;DHT22;33786;48.690;9.562;2023-04-03T16:08:44;6.60;80.20
48019;DHT22;33786;48.690;9.562;2023-04-03T16:11:12;6.80;79.10
48019;DHT22;33786;48.690;9.562;2023-04-03T16:13:39;6.90;78.80
48019;DHT22;33786;48.690;9.562;2023-04-03T16:16:06;7.00;77.60
48019;DHT22;33786;48.690;9.562;2023-04-03T16:18:33;6.90;78.20
48019;DHT22;33786;48.690;9.562;2023-04-03T16:21:00;6.70;79.20
48019;DHT22;33786;48.690;9.562;2023-04-03T16:23:27;6.70;78.80
48019;DHT22;33786;48.690;9.562;2023-04-03T16:25:54;6.80;77.50
48019;DHT22;33786;48.690;9.562;2023-04-03T16:28:21;6.60;79.50
48019;DHT22;33786;48.690;9.562;2023-04-03T16:30:48;6.60;80.00
48019;DHT22;33786;48.690;9.562;2023-04-03T16:33:15;6.60;79.30
48019;DHT22;33786;48.690;9.562;2023-04-03T16:35:42;6.50;78.70
48019;DHT22;33786;48.690;9.562;2023-04-03T16:38:10;6.30;79.60
48019;DHT22;33786;48.690;9.562;2023-04-03T16:40:37;6.30;79.00
48019;DHT22;33786;48.690;9.562;2023-04-03T16:43:06;6.20;80.30
48019;DHT22;33786;48.690;9.562;2023-04-03T16:45:33;6.20;79.00
48019;DHT22;33786;48.690;9.562;2023-04-03T16:48:00;6.20;78.70
48019;DHT22;33786;48.690;9.562;2023-04-03T16:50:27;6.10;79.50
48019;DHT22;33786;48.690;9.562;2023-04-03T16:52:54;6.20;79.20
48019;DHT22;33786;48.690;9.562;2023-04-03T16:55:21;6.20;78.60
48019;DHT22;33786;48.690;9.562;2023-04-03T16:57:47;6.10;79.70
48019;DHT22;33786;48.690;9.562;2023-04-03T17:00:14;6.10;78.50
48019;DHT22;33786;48.690;9.562;2023-04-03T17:02:41;6.20;79.70
48019;DHT22;33786;48.690;9.562;2023-04-03T17:05:08;6.10;79.90
48019;DHT22;33786;48.690;9.562;2023-04-03T17:07:35;6.10;80.20
48019;DHT22;33786;48.690;9.562;2023-04-03T17:10:02;6.00;79.90
48019;DHT22;33786;48.690;9.562;2023-04-03T17:12:29;6.00;79.40
48019;DHT22;33786;48.690;9.562;2023-04-03T17:14:56;6.00;79.50
48019;DHT22;33786;48.690;9.562;2023-04-03T17:17:23;6.10;79.70
48019;DHT22;33786;48.690;9.562;2023-04-03T17:19:50;6.20;79.60
48019;DHT22;33786;48.690;9.562;2023-04-03T17:22:17;6.10;79.10
48019;DHT22;33786;48.690;9.562;2023-04-03T17:24:44;6.10;79.30
48019;DHT22;33786;48.690;9.562;2023-04-03T17:27:11;6.00;80.50
48019;DHT22;33786;48.690;9.562;2023-04-03T17:29:38;5.90;80.00
48019;DHT22;33786;48.690;9.562;2023-04-03T17:32:04;5.90;81.00